Time;durP1;ratioP1;P1;durP2;ratioP2;P2;SDS_P1;SDS_P2;PMS_P1;PMS_P2;Temp;Humidity;BMP_temperature;BMP_pressure;BME280_temperature;BME280_humidity;BME280_pressure;Samples;Min_cycle;Max_cycle;Signal;HPM_P1;HPM_P2
2023/12/16 00:02:06;;;;;;;17.65;6.28;;;;;;;8.20;100.00;103779.13;4787857;30;20523;-66
2023/12/16 00:04:56;;;;;;;15.25;5.55;;;;;;;8.21;100.00;103791.72;4787939;30;20051;-65
2023/12/16 00:07:44;;;;;;;17.95;6.25;;;;;;;8.22;100.00;103785.25;4787412;30;20115;-66
2023/12/16 00:10:32;;;;;;;17.45;6.20;;;;;;;8.22;100.00;103787.97;4776211;30;20051;-66
2023/12/16 00:13:20;;;;;;;19.08;5.55;;;;;;;8.21;100.00;103778.97;4788451;29;20126;-66
2023/12/16 00:16:08;;;;;;;14.95;5.93;;;;;;;8.21;100.00;103780.84;4775811;30;20401;-66
2023/12/16 00:18:56;;;;;;;18.02;6.50;;;;;;;8.22;100.00;103777.09;4788174;30;20445;-66
2023/12/16 00:21:44;;;;;;;18.27;6.75;;;;;;;8.21;100.00;103778.13;4788636;29;20066;-66
2023/12/16 00:24:32;;;;;;;17.35;6.63;;;;;;;8.21;100.00;103780.84;4774343;30;20047;-66
2023/12/16 00:27:21;;;;;;;17.50;6.20;;;;;;;8.22;100.00;103782.53;4786817;30;20092;-64
2023/12/16 00:30:09;;;;;;;17.42;5.93;;;;;;;8.22;100.00;103777.94;4763738;30;20443;-66
2023/12/16 00:32:58;;;;;;;19.73;7.15;;;;;;;8.22;100.00;103760.78;4787607;30;20421;-65
2023/12/16 00:35:47;;;;;;;17.20;6.03;;;;;;;8.22;100.00;103753.47;4786594;30;20190;-65
2023/12/16 00:38:34;;;;;;;20.65;7.00;;;;;;;8.21;100.00;103748.25;4788125;30;20489;-66
2023/12/16 00:41:22;;;;;;;17.55;6.90;;;;;;;8.20;100.00;103752.84;4785990;29;20055;-65
2023/12/16 00:44:10;;;;;;;20.80;6.30;;;;;;;8.21;100.00;103753.69;4786968;30;20059;-66
2023/12/16 00:46:58;;;;;;;19.50;5.97;;;;;;;8.21;100.00;103764.56;4788311;29;20047;-65
2023/12/16 00:49:46;;;;;;;17.10;5.90;;;;;;;8.19;100.00;103759.28;4787821;29;20043;-66
2023/12/16 00:52:34;;;;;;;17.27;6.38;;;;;;;8.19;100.00;103775.59;4773539;30;20082;-65
2023/12/16 00:55:22;;;;;;;17.10;6.28;;;;;;;8.20;100.00;103776.41;4774729;30;20058;-65
2023/12/16 00:58:10;;;;;;;20.08;7.25;;;;;;;8.20;100.00;103771.00;4788573;30;20058;-66
2023/12/16 01:00:58;;;;;;;17.58;6.78;;;;;;;8.22;100.00;103768.94;4773569;30;20039;-65
2023/12/16 01:03:46;;;;;;;22.23;7.47;;;;;;;8.21;100.00;103759.13;4776083;29;20450;-66
2023/12/16 01:06:34;;;;;;;19.35;6.47;;;;;;;8.21;100.00;103764.56;4788403;29;20067;-64
2023/12/16 01:09:24;;;;;;;13.70;5.57;;;;;;;8.22;100.00;103758.09;4788448;29;20047;-65
2023/12/16 01:12:12;;;;;;;16.30;5.68;;;;;;;8.22;100.00;103763.50;4781635;29;20043;-65
2023/12/16 01:15:00;;;;;;;18.83;5.93;;;;;;;8.23;100.00;103751.63;4787474;30;20052;-65
2023/12/16 01:17:49;;;;;;;18.40;5.50;;;;;;;8.23;100.00;103759.78;4774056;30;20055;-65
2023/12/16 01:20:37;;;;;;;16.30;5.43;;;;;;;8.23;100.00;103757.06;4787080;30;20188;-65
2023/12/16 01:23:25;;;;;;;16.45;5.72;;;;;;;8.23;100.00;103765.22;4787159;29;20063;-66
2023/12/16 01:26:13;;;;;;;17.92;6.03;;;;;;;8.23;100.00;103751.63;4774321;30;20047;-66
2023/12/16 01:29:01;;;;;;;21.10;6.35;;;;;;;8.23;100.00;103762.50;4774107;30;20047;-65
2023/12/16 01:31:49;;;;;;;15.45;5.75;;;;;;;8.23;100.00;103751.63;4786412;30;20477;-65
2023/12/16 01:34:37;;;;;;;16.75;5.82;;;;;;;8.22;100.00;103745.34;4772801;30;20058;-65
2023/12/16 01:37:26;;;;;;;18.13;6.13;;;;;;;8.21;100.00;103748.25;4789587;29;20447;-64
2023/12/16 01:40:14;;;;;;;18.67;5.75;;;;;;;8.21;100.00;103753.69;4796296;29;20108;-62
2023/12/16 01:43:06;;;;;;;14.00;5.15;;;;;;;8.19;100.00;103751.13;4803345;29;20048;-64
2023/12/16 01:46:04;;;;;;;18.00;5.95;;;;;;;8.19;100.00;103744.88;4793910;30;20055;-64
2023/12/16 01:48:52;;;;;;;16.20;5.22;;;;;;;8.19;100.00;103744.88;4774354;30;20043;-65
2023/12/16 01:51:40;;;;;;;14.35;5.10;;;;;;;8.19;100.00;103742.16;4785578;30;20115;-63
2023/12/16 01:54:28;;;;;;;14.15;4.93;;;;;;;8.17;100.00;103734.16;4796206;30;20115;-64
2023/12/16 01:57:16;;;;;;;19.95;5.97;;;;;;;8.18;100.00;103732.28;4792504;29;20404;-65
2023/12/16 02:00:05;;;;;;;16.42;5.30;;;;;;;8.17;100.00;103736.06;4790840;30;20489;-65
2023/12/16 02:03:00;;;;;;;13.85;5.25;;;;;;;8.16;100.00;103745.25;4790048;30;20054;-66
2023/12/16 02:05:48;;;;;;;17.05;5.40;;;;;;;8.14;100.00;103744.56;4790703;30;20121;-66
2023/12/16 02:08:36;;;;;;;13.75;5.28;;;;;;;8.14;100.00;103747.28;4776466;30;20051;-66
2023/12/16 02:11:24;;;;;;;16.88;5.60;;;;;;;8.13;100.00;103751.88;4787636;30;20059;-66
2023/12/16 02:14:12;;;;;;;16.27;4.82;;;;;;;8.13;100.00;103757.31;4789465;30;20050;-66
2023/12/16 02:17:00;;;;;;;11.63;4.80;;;;;;;8.12;100.00;103761.03;4789848;30;20176;-65
2023/12/16 02:19:50;;;;;;;18.00;5.28;;;;;;;8.12;100.00;103763.75;4790834;29;20051;-65
2023/12/16 02:22:38;;;;;;;17.75;5.45;;;;;;;8.11;100.00;103762.06;4786991;29;20086;-65
2023/12/16 02:25:26;;;;;;;14.27;5.20;;;;;;;8.09;100.00;103762.22;4790094;30;20557;-65
2023/12/16 02:28:14;;;;;;;14.63;4.88;;;;;;;8.08;100.00;103759.69;4790518;30;20050;-65
2023/12/16 02:31:02;;;;;;;16.00;5.18;;;;;;;8.06;100.00;103762.59;4789459;30;20043;-65
2023/12/16 02:33:50;;;;;;;16.65;5.15;;;;;;;8.06;100.00;103757.16;4786991;30;20492;-66
2023/12/16 02:36:38;;;;;;;15.98;4.55;;;;;;;8.04;100.00;103753.78;4777086;30;20080;-67
2023/12/16 02:39:26;;;;;;;16.13;5.20;;;;;;;8.03;100.00;103752.09;4764686;30;20047;-65
2023/12/16 02:42:14;;;;;;;17.42;4.80;;;;;;;8.03;100.00;103745.81;4787859;30;20169;-64
2023/12/16 02:45:02;;;;;;;15.55;5.20;;;;;;;8.00;100.00;103736.16;4789741;29;20055;-66
2023/12/16 02:47:51;;;;;;;18.25;5.32;;;;;;;7.99;100.00;103739.91;4789196;30;20047;-66
2023/12/16 02:50:39;;;;;;;14.20;4.50;;;;;;;8.00;100.00;103747.00;4790133;30;20051;-66
2023/12/16 02:53:27;;;;;;;20.35;5.32;;;;;;;7.98;100.00;103754.47;4787455;30;20051;-66
2023/12/16 02:56:17;;;;;;;13.55;4.32;;;;;;;7.97;100.00;103763.66;4770740;30;20113;-66
2023/12/16 02:59:05;;;;;;;15.13;4.78;;;;;;;7.98;100.00;103759.91;4789162;30;20078;-66
2023/12/16 03:01:53;;;;;;;17.88;4.80;;;;;;;7.97;100.00;103766.38;4769130;30;20510;-66
2023/12/16 03:04:41;;;;;;;21.33;5.70;;;;;;;7.96;100.00;103759.28;4762148;30;20050;-66
2023/12/16 03:07:29;;;;;;;15.35;5.00;;;;;;;7.94;100.00;103758.59;4789178;30;20043;-66
2023/12/16 03:10:17;;;;;;;16.92;5.03;;;;;;;7.94;100.00;103755.88;4788204;30;20516;-65
2023/12/16 03:13:05;;;;;;;16.50;4.82;;;;;;;7.94;100.00;103752.31;4785861;29;20043;-65
2023/12/16 03:15:54;;;;;;;15.05;5.22;;;;;;;7.92;100.00;103755.22;4789534;29;20461;-66
2023/12/16 03:18:42;;;;;;;16.52;4.78;;;;;;;7.90;100.00;103752.66;4788613;30;20497;-66
2023/12/16 03:21:30;;;;;;;16.23;4.70;;;;;;;7.91;100.00;103750.78;4790137;29;20059;-66
2023/12/16 03:24:18;;;;;;;15.63;4.90;;;;;;;7.90;100.00;103751.81;4789581;29;20050;-65
2023/12/16 03:27:06;;;;;;;16.63;5.13;;;;;;;7.89;100.00;103742.00;4776686;29;20050;-64
2023/12/16 03:29:54;;;;;;;13.30;4.57;;;;;;;7.88;100.00;103732.16;4788000;30;20083;-66
2023/12/16 03:32:42;;;;;;;16.45;5.28;;;;;;;7.88;100.00;103732.16;4775229;30;20039;-65
2023/12/16 03:35:30;;;;;;;16.70;4.97;;;;;;;7.87;100.00;103741.34;4789826;29;20051;-65
2023/12/16 03:38:18;;;;;;;16.02;4.90;;;;;;;7.86;100.00;103747.75;4789330;30;20488;-66
2023/12/16 03:41:06;;;;;;;13.35;4.35;;;;;;;7.84;100.00;103747.09;4788476;30;20126;-65
2023/12/16 03:43:54;;;;;;;15.48;4.47;;;;;;;7.82;100.00;103752.72;4781997;29;20119;-65
2023/12/16 03:46:42;;;;;;;13.40;4.57;;;;;;;7.84;100.00;103747.09;4789630;30;20063;-66
2023/12/16 03:49:30;;;;;;;15.88;4.70;;;;;;;7.82;100.00;103741.03;4759364;30;20043;-66
2023/12/16 03:52:18;;;;;;;15.35;5.03;;;;;;;7.81;100.00;103745.56;4774391;30;20059;-66
2023/12/16 03:55:07;;;;;;;14.90;4.70;;;;;;;7.82;100.00;103743.75;4786925;30;20166;-65
2023/12/16 03:57:55;;;;;;;17.10;4.85;;;;;;;7.82;100.00;103741.03;4789014;30;20390;-67
2023/12/16 04:00:43;;;;;;;15.45;4.45;;;;;;;7.81;100.00;103747.47;4777667;30;20082;-66
2023/12/16 04:03:31;;;;;;;19.08;4.90;;;;;;;7.82;100.00;103741.88;4764074;30;20425;-67
2023/12/16 04:06:19;;;;;;;16.75;4.63;;;;;;;7.82;100.00;103746.44;4788854;30;20153;-65
2023/12/16 04:09:07;;;;;;;17.00;4.70;;;;;;;7.80;100.00;103743.06;4789505;29;20051;-66
2023/12/16 04:11:55;;;;;;;12.70;4.35;;;;;;;7.82;100.00;103749.16;4788335;30;20412;-66
2023/12/16 04:14:42;;;;;;;15.00;4.85;;;;;;;7.80;100.00;103748.50;4773891;30;20051;-65
2023/12/16 04:17:30;;;;;;;15.20;5.10;;;;;;;7.80;100.00;103745.78;4787815;30;20131;-65
2023/12/16 04:20:18;;;;;;;16.42;4.82;;;;;;;7.78;100.00;103755.97;4789394;29;20062;-65
2023/12/16 04:23:06;;;;;;;15.13;4.72;;;;;;;7.80;100.00;103753.91;4774458;30;20052;-66
2023/12/16 04:25:54;;;;;;;16.38;5.00;;;;;;;7.78;100.00;103747.81;4786378;30;20141;-65
2023/12/16 04:28:42;;;;;;;15.13;4.90;;;;;;;7.81;100.00;103742.88;4787890;30;20137;-64
2023/12/16 04:31:30;;;;;;;19.85;5.95;;;;;;;7.81;100.00;103742.88;4774995;30;20047;-67
2023/12/16 04:34:19;;;;;;;17.27;5.30;;;;;;;7.74;100.00;103743.75;4786434;29;20569;-67
2023/12/16 04:37:07;;;;;;;19.15;6.20;;;;;;;7.66;100.00;103729.19;4786527;30;20047;-66
2023/12/16 04:39:55;;;;;;;20.23;5.85;;;;;;;7.62;100.00;103741.44;4788815;29;20074;-66
2023/12/16 04:42:43;;;;;;;18.08;5.72;;;;;;;7.60;100.00;103735.34;4788717;29;20066;-66
2023/12/16 04:45:31;;;;;;;11.40;4.22;;;;;;;7.64;100.00;103738.53;4787761;29;20265;-66
2023/12/16 04:48:19;;;;;;;20.00;5.38;;;;;;;7.67;100.00;103730.03;4786858;30;20127;-65
2023/12/16 04:51:07;;;;;;;11.70;4.22;;;;;;;7.68;100.00;103729.88;4770806;30;20044;-65
2023/12/16 04:53:56;;;;;;;18.13;5.88;;;;;;;7.72;100.00;103732.22;4772965;30;20130;-65
2023/12/16 04:56:44;;;;;;;20.73;6.10;;;;;;;7.72;100.00;103732.22;4788397;29;20374;-65
2023/12/16 04:59:32;;;;;;;16.55;5.53;;;;;;;7.71;100.00;103727.84;4787736;29;20051;-66
2023/12/16 05:02:20;;;;;;;16.20;5.47;;;;;;;7.73;100.00;103733.94;4768923;30;20059;-67
2023/12/16 05:05:08;;;;;;;17.27;5.35;;;;;;;7.72;100.00;103737.66;4784840;29;20548;-66
2023/12/16 05:07:56;;;;;;;15.40;5.00;;;;;;;7.71;100.00;103733.25;4777389;30;20055;-66
2023/12/16 05:10:47;;;;;;;19.58;5.95;;;;;;;7.71;100.00;103744.13;4786422;30;20047;-66
2023/12/16 05:13:36;;;;;;;14.45;4.80;;;;;;;7.69;100.00;103747.84;4788147;29;20047;-66
2023/12/16 05:16:26;;;;;;;17.60;5.47;;;;;;;7.68;100.00;103743.44;4787573;29;20051;-66
2023/12/16 05:19:14;;;;;;;18.65;5.07;;;;;;;7.68;100.00;103754.31;4762666;30;20085;-66
2023/12/16 05:22:03;;;;;;;16.20;5.22;;;;;;;7.68;100.00;103754.31;4787973;29;20055;-66
2023/12/16 05:24:51;;;;;;;22.35;6.10;;;;;;;7.67;100.00;103758.06;4788879;29;20039;-66
2023/12/16 05:27:39;;;;;;;14.25;4.50;;;;;;;7.67;100.00;103754.47;4776906;29;20050;-66
2023/12/16 05:30:27;;;;;;;16.85;5.45;;;;;;;7.66;100.00;103755.50;4777694;30;20043;-66
2023/12/16 05:33:15;;;;;;;14.82;5.00;;;;;;;7.62;100.00;103743.28;4791293;30;20058;-67
2023/12/16 05:36:03;;;;;;;17.33;5.18;;;;;;;7.62;100.00;103748.72;4790576;29;20056;-66
2023/12/16 05:38:51;;;;;;;15.75;6.22;;;;;;;7.60;100.00;103750.75;4777192;30;20051;-66
2023/12/16 05:41:39;;;;;;;18.58;5.50;;;;;;;7.60;100.00;103738.06;4789564;30;20063;-66
2023/12/16 05:44:27;;;;;;;17.35;5.00;;;;;;;7.60;100.00;103745.34;4790845;30;20043;-66
2023/12/16 05:47:16;;;;;;;20.17;5.50;;;;;;;7.60;100.00;103748.91;4789882;30;20043;-66
2023/12/16 05:50:04;;;;;;;13.75;4.88;;;;;;;7.59;100.00;103743.66;4794477;29;20054;-66
2023/12/16 05:52:52;;;;;;;19.70;5.75;;;;;;;7.58;100.00;103750.13;4791931;29;20051;-66
2023/12/16 05:55:40;;;;;;;16.50;5.35;;;;;;;7.59;100.00;103739.06;4796353;29;20052;-66
2023/12/16 05:58:28;;;;;;;15.02;5.18;;;;;;;7.57;100.00;103746.53;4803146;29;20053;-66
2023/12/16 06:01:19;;;;;;;14.27;4.22;;;;;;;7.59;100.00;103732.81;4792151;30;20130;-65
2023/12/16 06:04:08;;;;;;;15.70;4.90;;;;;;;7.62;100.00;103733.28;4793944;29;20497;-65
2023/12/16 06:06:56;;;;;;;13.52;4.20;;;;;;;7.59;100.00;103743.66;4804958;30;20074;-65
2023/12/16 06:09:44;;;;;;;16.73;4.97;;;;;;;7.57;100.00;103740.28;4785554;30;20048;-65
2023/12/16 06:12:32;;;;;;;17.10;4.50;;;;;;;7.58;100.00;103744.69;4766950;30;20109;-63
2023/12/16 06:15:20;;;;;;;16.08;5.05;;;;;;;7.57;100.00;103740.28;4783239;30;20519;-65
2023/12/16 06:18:08;;;;;;;15.10;4.30;;;;;;;7.58;100.00;103748.25;4790926;30;20052;-64
2023/12/16 06:20:56;;;;;;;17.65;5.43;;;;;;;7.57;100.00;103738.41;4791177;30;20039;-64
2023/12/16 06:23:44;;;;;;;15.52;4.60;;;;;;;7.58;100.00;103734.69;4790752;30;20051;-65
2023/12/16 06:26:32;;;;;;;13.98;4.38;;;;;;;7.59;100.00;103733.66;4788866;30;20142;-64
2023/12/16 06:29:20;;;;;;;14.77;4.57;;;;;;;7.56;100.00;103739.44;4789688;30;20058;-64
2023/12/16 06:32:08;;;;;;;14.90;4.72;;;;;;;7.57;100.00;103745.69;4778490;30;20070;-65
2023/12/16 06:34:56;;;;;;;21.67;5.63;;;;;;;7.51;100.00;103732.84;4772313;30;20409;-65
2023/12/16 06:37:45;;;;;;;16.90;5.20;;;;;;;7.50;100.00;103740.13;4771450;30;20055;-65
2023/12/16 06:40:33;;;;;;;17.67;5.13;;;;;;;7.48;100.00;103744.91;4759241;30;20062;-66
2023/12/16 06:43:21;;;;;;;16.17;5.03;;;;;;;7.46;100.00;103741.50;4791008;29;20435;-66
2023/12/16 06:46:09;;;;;;;22.35;5.50;;;;;;;7.44;100.00;103748.97;4791046;29;20055;-66
2023/12/16 06:48:57;;;;;;;14.27;5.22;;;;;;;7.43;100.00;103749.97;4788017;30;20133;-66
2023/12/16 06:51:45;;;;;;;13.73;4.82;;;;;;;7.42;100.00;103751.84;4745179;30;20409;-67
2023/12/16 06:54:33;;;;;;;19.67;5.60;;;;;;;7.40;100.00;103750.34;4770674;30;20058;-66
2023/12/16 06:57:21;;;;;;;17.45;5.30;;;;;;;7.38;100.00;103745.06;4770755;30;20144;-65
2023/12/16 07:00:10;;;;;;;14.25;5.55;;;;;;;7.39;100.00;103748.66;4774512;30;20071;-66
2023/12/16 07:02:58;;;;;;;14.60;4.68;;;;;;;7.38;100.00;103749.66;4763316;30;20043;-67
2023/12/16 07:05:46;;;;;;;18.13;5.35;;;;;;;7.39;100.00;103740.53;4764810;30;20051;-67
2023/12/16 07:08:36;;;;;;;12.02;4.47;;;;;;;7.42;100.00;103746.44;4790099;29;20051;-65
2023/12/16 07:11:24;;;;;;;17.20;5.10;;;;;;;7.41;100.00;103752.06;4789056;30;20059;-65
2023/12/16 07:14:12;;;;;;;16.00;4.72;;;;;;;7.40;100.00;103750.34;4762920;30;20532;-66
2023/12/16 07:17:01;;;;;;;18.27;5.30;;;;;;;7.37;100.00;103758.84;4788731;30;20047;-66
2023/12/16 07:19:49;;;;;;;15.23;4.70;;;;;;;7.35;100.00;103758.16;4776035;30;20533;-65
2023/12/16 07:22:38;;;;;;;18.60;5.22;;;;;;;7.35;100.00;103769.84;4773217;30;20058;-67
2023/12/16 07:25:26;;;;;;;14.45;5.60;;;;;;;7.34;100.00;103770.03;4789221;30;20050;-68
2023/12/16 07:28:15;;;;;;;16.15;4.78;;;;;;;7.33;100.00;103774.59;4788852;30;20257;-68
2023/12/16 07:31:03;;;;;;;13.52;4.65;;;;;;;7.35;100.00;103769.84;4773573;30;20405;-66
2023/12/16 07:33:51;;;;;;;16.00;5.13;;;;;;;7.34;100.00;103775.47;4786436;29;20046;-66
2023/12/16 07:36:39;;;;;;;15.55;4.88;;;;;;;7.34;100.00;103789.03;4788526;30;20070;-67
2023/12/16 07:39:27;;;;;;;13.30;4.78;;;;;;;7.31;100.00;103786.63;4788298;30;20070;-67
2023/12/16 07:42:15;;;;;;;14.45;4.68;;;;;;;7.32;100.00;103778.34;4786291;30;20047;-67
2023/12/16 07:45:04;;;;;;;13.50;4.45;;;;;;;7.33;100.00;103780.03;4763849;30;20175;-68
2023/12/16 07:47:52;;;;;;;15.30;4.65;;;;;;;7.34;100.00;103776.31;4764357;29;20059;-67
2023/12/16 07:50:40;;;;;;;12.15;4.13;;;;;;;7.37;100.00;103783.25;4774351;30;20050;-66
2023/12/16 07:53:28;;;;;;;12.07;4.40;;;;;;;7.39;100.00;103787.47;4776168;30;20039;-66
2023/12/16 07:56:29;;;;;;;13.55;4.05;;;;;;;7.35;100.00;103783.41;4775220;30;20400;-66
2023/12/16 07:59:17;;;;;;;19.42;4.38;;;;;;;7.33;100.00;103787.31;4777077;30;20159;-66
2023/12/16 08:02:08;;;;;;;21.80;5.05;;;;;;;7.32;100.00;103793.78;4786388;30;20181;-67
2023/12/16 08:04:56;;;;;;;14.48;5.13;;;;;;;7.31;100.00;103806.50;4787648;30;20075;-66
2023/12/16 08:07:45;;;;;;;12.98;4.20;;;;;;;7.32;100.00;103801.91;4774998;30;20522;-66
2023/12/16 08:10:34;;;;;;;19.58;5.22;;;;;;;7.30;100.00;103809.38;4788782;30;20055;-67
2023/12/16 08:13:22;;;;;;;14.68;4.65;;;;;;;7.30;100.00;103806.66;4788091;29;20466;-65
2023/12/16 08:16:11;;;;;;;15.57;4.53;;;;;;;7.34;100.00;103811.56;4788405;30;20051;-66
2023/12/16 08:18:59;;;;;;;12.52;4.38;;;;;;;7.36;100.00;103809.53;4786582;30;20496;-66
2023/12/16 08:21:47;;;;;;;13.65;4.20;;;;;;;7.40;100.00;103804.59;4787610;29;20103;-67
2023/12/16 08:24:35;;;;;;;15.38;4.75;;;;;;;7.41;100.00;103811.72;4771441;30;20048;-67
2023/12/16 08:27:23;;;;;;;18.17;5.03;;;;;;;7.38;100.00;103814.75;4771047;30;20051;-67
2023/12/16 08:30:13;;;;;;;13.20;4.47;;;;;;;7.40;100.00;103810.03;4770479;30;20052;-68
2023/12/16 08:33:01;;;;;;;16.45;4.72;;;;;;;7.41;100.00;103814.44;4774882;30;20058;-67
2023/12/16 08:35:50;;;;;;;12.50;3.83;;;;;;;7.45;100.00;103813.06;4785818;30;20484;-67
2023/12/16 08:38:39;;;;;;;12.73;3.85;;;;;;;7.46;100.00;103815.59;4787674;30;20181;-68
2023/12/16 08:41:27;;;;;;;18.52;5.03;;;;;;;7.50;100.00;103815.25;4781319;29;20155;-68
2023/12/16 08:44:15;;;;;;;14.15;4.65;;;;;;;7.47;100.00;103816.44;4770362;30;20047;-68
2023/12/16 08:47:03;;;;;;;16.65;5.03;;;;;;;7.50;100.00;103809.81;4769947;30;20105;-68
2023/12/16 08:49:51;;;;;;;18.10;4.97;;;;;;;7.51;100.00;103809.66;4773389;30;20051;-67
2023/12/16 08:52:40;;;;;;;21.90;5.63;;;;;;;7.51;100.00;103806.09;4792461;29;20047;-68
2023/12/16 08:55:28;;;;;;;18.25;5.45;;;;;;;7.55;100.00;103819.16;4787541;30;20059;-68
2023/12/16 08:58:17;;;;;;;23.73;5.88;;;;;;;7.55;100.00;103829.13;4788216;29;20055;-67
2023/12/16 09:01:06;;;;;;;19.02;5.45;;;;;;;7.57;100.00;103830.66;4782526;29;20043;-67
2023/12/16 09:03:54;;;;;;;20.73;6.40;;;;;;;7.58;100.00;103824.22;4770556;30;20055;-67
2023/12/16 09:06:43;;;;;;;40.10;11.93;;;;;;;7.63;100.00;103826.41;4769923;30;20563;-67
2023/12/16 09:09:31;;;;;;;22.45;6.75;;;;;;;7.65;100.00;103822.50;4770808;30;20052;-69
2023/12/16 09:12:19;;;;;;;31.00;8.73;;;;;;;7.69;100.00;103826.53;4782167;30;20043;-68
2023/12/16 09:15:08;;;;;;;23.73;7.13;;;;;;;7.71;100.00;103822.81;4775296;30;20118;-68
2023/12/16 09:17:56;;;;;;;32.40;8.50;;;;;;;7.76;100.00;103823.16;4775039;30;20120;-67
2023/12/16 09:20:44;;;;;;;25.42;8.13;;;;;;;7.72;100.00;103825.38;4770085;30;20059;-67
2023/12/16 09:23:33;;;;;;;19.17;6.10;;;;;;;7.73;100.00;103832.47;4770721;30;20055;-67
2023/12/16 09:26:23;;;;;;;18.00;5.45;;;;;;;7.73;100.00;103834.34;4773653;30;20251;-67
2023/12/16 09:29:11;;;;;;;23.38;5.85;;;;;;;7.73;100.00;103842.50;4442609;29;9999672;-67
2023/12/16 09:31:59;;;;;;;17.92;5.05;;;;;;;7.72;100.00;103841.66;4783278;30;20653;-68
2023/12/16 09:34:48;;;;;;;24.23;5.53;;;;;;;7.73;100.00;103837.91;4766763;30;20107;-68
2023/12/16 09:37:36;;;;;;;18.17;5.20;;;;;;;7.76;100.00;103848.41;4767651;30;20052;-68
2023/12/16 09:40:24;;;;;;;22.52;6.72;;;;;;;7.78;100.00;103846.38;4756123;30;20056;-67
2023/12/16 09:43:16;;;;;;;15.68;5.40;;;;;;;7.78;100.00;103845.53;4777954;29;20052;-67
2023/12/16 09:46:04;;;;;;;19.67;5.57;;;;;;;7.78;100.00;103850.97;4767935;30;20458;-67
2023/12/16 09:48:53;;;;;;;18.85;6.28;;;;;;;7.79;100.00;103848.09;4784415;29;20047;-68
2023/12/16 09:51:42;;;;;;;22.50;6.07;;;;;;;7.88;100.00;103855.16;4767872;30;20116;-67
2023/12/16 09:54:30;;;;;;;20.80;5.93;;;;;;;7.89;100.00;103861.44;4783584;30;20205;-66
2023/12/16 09:57:19;;;;;;;17.90;5.43;;;;;;;7.92;100.00;103866.53;4771617;30;20062;-68
2023/12/16 10:00:09;;;;;;;23.13;7.05;;;;;;;7.92;100.00;103863.81;4772911;29;20047;-69
2023/12/16 10:02:57;;;;;;;23.05;6.45;;;;;;;7.90;100.00;103860.41;4781581;30;20509;-68
2023/12/16 10:05:46;;;;;;;21.90;6.28;;;;;;;7.93;100.00;103864.66;4785985;30;20055;-70
2023/12/16 10:08:35;;;;;;;20.30;6.20;;;;;;;7.94;100.00;103859.06;4764851;30;20690;-70
2023/12/16 10:11:24;;;;;;;19.63;6.13;;;;;;;7.94;100.00;103866.31;4805872;30;20100;-70
2023/12/16 10:14:12;;;;;;;21.88;6.80;;;;;;;8.00;100.00;103866.47;4795758;30;20074;-68
2023/12/16 10:17:04;;;;;;;23.83;7.03;;;;;;;7.99;100.00;103856.66;4794221;29;20100;-67
2023/12/16 10:19:52;;;;;;;23.17;6.65;;;;;;;7.98;100.00;103860.38;4806933;29;20073;-67
2023/12/16 10:22:40;;;;;;;21.92;6.72;;;;;;;8.02;100.00;103867.16;4785375;30;20083;-65
2023/12/16 10:25:31;;;;;;;22.05;7.60;;;;;;;8.02;100.00;103874.47;4761278;30;20054;-68
2023/12/16 10:28:20;;;;;;;23.92;6.90;;;;;;;8.04;100.00;103873.25;4754730;30;20052;-68
2023/12/16 10:31:08;;;;;;;20.92;7.57;;;;;;;8.00;100.00;103866.47;4756258;30;20067;-68
2023/12/16 10:33:59;;;;;;;26.15;7.38;;;;;;;8.01;100.00;103868.19;4768355;30;20517;-67
2023/12/16 10:36:47;;;;;;;20.85;7.28;;;;;;;8.02;100.00;103867.16;4760509;30;20051;-68
2023/12/16 10:39:36;;;;;;;21.77;7.38;;;;;;;8.04;100.00;103862.41;4757100;30;20506;-67
2023/12/16 10:42:24;;;;;;;18.25;6.93;;;;;;;8.06;100.00;103854.09;4755489;30;20178;-67
2023/12/16 10:45:12;;;;;;;24.02;7.63;;;;;;;8.11;100.00;103852.53;4774965;30;20052;-69
2023/12/16 10:48:02;;;;;;;22.90;7.95;;;;;;;8.10;100.00;103848.13;4764652;30;20131;-68
2023/12/16 10:50:50;;;;;;;22.25;7.47;;;;;;;8.11;100.00;103838.94;4723726;30;20052;-69
2023/12/16 10:53:46;;;;;;;17.80;7.43;;;;;;;8.11;100.00;103838.94;4724852;30;20839;-70
2023/12/16 10:56:39;;;;;;;26.52;8.10;;;;;;;8.14;100.00;103845.06;4752189;30;20062;-69
2023/12/16 10:59:33;;;;;;;23.38;7.90;;;;;;;8.15;100.00;103835.88;4755421;30;20082;-69
2023/12/16 11:02:26;;;;;;;25.48;7.50;;;;;;;8.18;100.00;103839.09;4754539;30;20054;-68
2023/12/16 11:05:29;;;;;;;23.60;7.97;;;;;;;8.15;100.00;103842.13;4726502;30;20057;-69
2023/12/16 11:08:18;;;;;;;24.95;8.50;;;;;;;8.13;100.00;103843.34;4754053;30;20064;-70
2023/12/16 11:11:06;;;;;;;20.83;7.20;;;;;;;8.10;100.00;103831.84;4742553;30;20170;-69
2023/12/16 11:13:55;;;;;;;25.95;8.13;;;;;;;8.09;100.00;103824.69;4754378;30;20066;-69
2023/12/16 11:16:58;;;;;;;24.92;8.18;;;;;;;8.15;100.00;103822.28;4753627;30;20056;-69
2023/12/16 11:20:08;;;;;;;26.55;9.27;;;;;;;8.16;100.00;103826.72;4754781;30;20134;-69
2023/12/16 11:22:56;;;;;;;27.00;8.55;;;;;;;8.17;100.00;103825.69;4782923;30;20552;-69
2023/12/16 11:25:46;;;;;;;22.33;7.45;;;;;;;8.20;100.00;103825.31;4775405;30;20065;-68
2023/12/16 11:28:34;;;;;;;23.27;7.55;;;;;;;8.20;100.00;103811.72;4750462;30;20059;-67
2023/12/16 11:31:23;;;;;;;23.10;8.90;;;;;;;8.21;100.00;103808.84;4760572;30;20128;-70
2023/12/16 11:34:11;;;;;;;31.13;9.38;;;;;;;8.21;100.00;103803.41;4757333;30;20078;-69
2023/12/16 11:37:02;;;;;;;23.33;7.75;;;;;;;8.22;100.00;103791.50;4763887;30;20057;-68
2023/12/16 11:39:50;;;;;;;24.17;8.23;;;;;;;8.27;100.00;103786.41;4790228;29;20522;-68
2023/12/16 11:42:49;;;;;;;29.30;8.35;;;;;;;8.29;100.00;103791.66;4776410;30;20047;-68
2023/12/16 11:45:43;;;;;;;24.35;7.78;;;;;;;8.29;100.00;103787.06;4777146;30;20047;-69
2023/12/16 11:48:31;;;;;;;23.02;8.68;;;;;;;8.31;100.00;103787.72;4776171;30;20059;-69
2023/12/16 11:51:19;;;;;;;27.85;8.75;;;;;;;8.30;100.00;103793.34;4764010;30;20055;-70
2023/12/16 11:54:09;;;;;;;19.50;7.35;;;;;;;8.33;100.00;103787.56;4788154;30;20055;-69
2023/12/16 11:56:56;;;;;;;24.95;8.90;;;;;;;8.32;100.00;103792.16;4765062;30;20505;-69
2023/12/16 11:59:45;;;;;;;28.48;9.73;;;;;;;8.29;100.00;103788.94;4775753;29;20051;-68
2023/12/16 12:02:33;;;;;;;25.48;8.85;;;;;;;8.27;100.00;103780.13;4774316;30;20048;-69
2023/12/16 12:05:21;;;;;;;27.55;9.10;;;;;;;8.26;100.00;103770.28;4778081;30;20058;-70
2023/12/16 12:08:10;;;;;;;25.98;10.30;;;;;;;8.25;100.00;103772.16;4757996;30;20576;-69
2023/12/16 12:10:58;;;;;;;20.00;7.68;;;;;;;8.28;100.00;103770.97;4778680;30;20057;-69
2023/12/16 12:13:50;;;;;;;25.33;8.73;;;;;;;8.30;100.00;103768.91;4790044;30;20062;-70
2023/12/16 12:16:38;;;;;;;22.98;8.45;;;;;;;8.29;100.00;103772.63;4762817;30;20147;-70
2023/12/16 12:19:26;;;;;;;32.08;8.75;;;;;;;8.33;100.00;103765.81;4775608;30;20059;-71
2023/12/16 12:22:14;;;;;;;26.73;9.15;;;;;;;8.30;100.00;103771.63;4788120;29;20077;-70
2023/12/16 12:25:04;;;;;;;27.95;8.65;;;;;;;8.30;100.00;103769.75;4790282;29;20058;-70
2023/12/16 12:27:52;;;;;;;23.52;7.43;;;;;;;8.36;100.00;103762.75;4776914;30;20070;-70
2023/12/16 12:30:40;;;;;;;24.08;7.72;;;;;;;8.36;100.00;103759.19;4785604;29;20062;-69
2023/12/16 12:33:28;;;;;;;17.73;6.47;;;;;;;8.37;100.00;103756.28;4777163;29;20054;-69
2023/12/16 12:36:16;;;;;;;22.60;7.00;;;;;;;8.41;100.00;103745.94;4775680;29;20107;-69
2023/12/16 12:39:06;;;;;;;24.58;7.72;;;;;;;8.41;100.00;103744.03;4789138;30;20130;-70
2023/12/16 12:42:01;;;;;;;20.10;8.02;;;;;;;8.40;100.00;103736.09;4783549;30;20051;-70
2023/12/16 12:44:53;;;;;;;17.98;6.75;;;;;;;8.41;100.00;103726.91;4775409;30;20462;-69
2023/12/16 12:47:42;;;;;;;27.00;8.15;;;;;;;8.44;100.00;103732.84;4788537;30;20047;-69
2023/12/16 12:50:31;;;;;;;23.95;7.90;;;;;;;8.43;100.00;103725.69;4786575;30;20051;-69
2023/12/16 12:53:20;;;;;;;21.17;7.40;;;;;;;8.47;100.00;103735.19;4787536;30;20053;-69
2023/12/16 12:56:13;;;;;;;21.65;7.30;;;;;;;8.43;100.00;103722.97;4788338;30;20413;-70